sensor_id;sensor_type;location;lat;lon;timestamp;temperature;humidity
34201;DHT22;20469;55.638;37.670;2023-06-19T00:01:09;16.30;1.00
34201;DHT22;20469;55.638;37.670;2023-06-19T00:03:36;16.20;1.00
34201;DHT22;20469;55.638;37.670;2023-06-19T00:06:05;16.10;1.00
34201;DHT22;20469;55.638;37.670;2023-06-19T00:08:32;16.10;1.00
34201;DHT22;20469;55.638;37.670;2023-06-19T00:10:59;16.10;1.00
34201;DHT22;20469;55.638;37.670;2023-06-19T00:13:27;16.20;1.00
34201;DHT22;20469;55.638;37.670;2023-06-19T00:15:54;16.20;1.00
34201;DHT22;20469;55.638;37.670;2023-06-19T00:18:22;16.10;1.00
34201;DHT22;20469;55.638;37.670;2023-06-19T00:20:49;16.10;1.00
34201;DHT22;20469;55.638;37.670;2023-06-19T00:23:17;16.00;1.00
34201;DHT22;20469;55.638;37.670;2023-06-19T00:25:44;15.90;1.00
34201;DHT22;20469;55.638;37.670;2023-06-19T00:28:12;15.90;1.00
34201;DHT22;20469;55.638;37.670;2023-06-19T00:30:41;16.00;1.00
34201;DHT22;20469;55.638;37.670;2023-06-19T00:33:08;16.00;1.00
34201;DHT22;20469;55.638;37.670;2023-06-19T00:35:36;16.00;1.00
34201;DHT22;20469;55.638;37.670;2023-06-19T00:38:05;15.90;1.00
34201;DHT22;20469;55.638;37.670;2023-06-19T00:40:34;15.80;1.00
34201;DHT22;20469;55.638;37.670;2023-06-19T00:43:02;15.70;1.00
34201;DHT22;20469;55.638;37.670;2023-06-19T00:45:30;15.60;1.00
34201;DHT22;20469;55.638;37.670;2023-06-19T00:47:59;15.60;1.00
34201;DHT22;20469;55.638;37.670;2023-06-19T00:50:28;15.60;1.00
34201;DHT22;20469;55.638;37.670;2023-06-19T00:52:59;15.60;1.00
34201;DHT22;20469;55.638;37.670;2023-06-19T00:55:29;15.80;1.00
34201;DHT22;20469;55.638;37.670;2023-06-19T00:57:59;15.60;1.00
34201;DHT22;20469;55.638;37.670;2023-06-19T01:00:26;15.60;1.00
34201;DHT22;20469;55.638;37.670;2023-06-19T01:02:53;15.40;1.00
34201;DHT22;20469;55.638;37.670;2023-06-19T01:05:21;15.30;1.00
34201;DHT22;20469;55.638;37.670;2023-06-19T01:10:28;15.20;1.00
34201;DHT22;20469;55.638;37.670;2023-06-19T01:13:17;15.20;1.00
34201;DHT22;20469;55.638;37.670;2023-06-19T01:15:46;15.10;1.00
34201;DHT22;20469;55.638;37.670;2023-06-19T01:18:15;15.20;1.00
34201;DHT22;20469;55.638;37.670;2023-06-19T01:20:43;15.20;1.00
34201;DHT22;20469;55.638;37.670;2023-06-19T01:23:11;15.10;1.00
34201;DHT22;20469;55.638;37.670;2023-06-19T01:25:39;15.10;1.00
34201;DHT22;20469;55.638;37.670;2023-06-19T01:28:09;15.10;1.00
34201;DHT22;20469;55.638;37.670;2023-06-19T01:30:39;15.20;1.00
34201;DHT22;20469;55.638;37.670;2023-06-19T01:33:26;15.40;1.00
34201;DHT22;20469;55.638;37.670;2023-06-19T01:35:56;15.40;1.00
34201;DHT22;20469;55.638;37.670;2023-06-19T01:38:25;15.50;1.00
34201;DHT22;20469;55.638;37.670;2023-06-19T01:40:55;15.60;1.00
34201;DHT22;20469;55.638;37.670;2023-06-19T01:43:25;15.50;1.00
34201;DHT22;20469;55.638;37.670;2023-06-19T01:45:52;15.60;1.00
34201;DHT22;20469;55.638;37.670;2023-06-19T01:48:20;15.40;1.00
34201;DHT22;20469;55.638;37.670;2023-06-19T01:50:48;15.40;1.00
34201;DHT22;20469;55.638;37.670;2023-06-19T01:53:16;15.50;1.00
34201;DHT22;20469;55.638;37.670;2023-06-19T01:55:43;15.40;1.00
34201;DHT22;20469;55.638;37.670;2023-06-19T01:58:10;15.40;1.00
34201;DHT22;20469;55.638;37.670;2023-06-19T02:00:38;15.30;1.00
34201;DHT22;20469;55.638;37.670;2023-06-19T02:03:05;15.20;1.00
34201;DHT22;20469;55.638;37.670;2023-06-19T02:05:33;15.20;1.00
34201;DHT22;20469;55.638;37.670;2023-06-19T02:08:01;15.30;1.00
34201;DHT22;20469;55.638;37.670;2023-06-19T02:10:28;15.30;1.00
34201;DHT22;20469;55.638;37.670;2023-06-19T02:12:56;15.30;1.00
34201;DHT22;20469;55.638;37.670;2023-06-19T02:15:23;15.30;1.00
34201;DHT22;20469;55.638;37.670;2023-06-19T02:17:50;15.20;1.00
34201;DHT22;20469;55.638;37.670;2023-06-19T02:20:23;15.40;1.00
34201;DHT22;20469;55.638;37.670;2023-06-19T02:22:53;15.50;1.00
34201;DHT22;20469;55.638;37.670;2023-06-19T02:25:20;15.50;1.00
34201;DHT22;20469;55.638;37.670;2023-06-19T02:27:47;15.50;1.00
34201;DHT22;20469;55.638;37.670;2023-06-19T02:30:15;15.30;1.00
34201;DHT22;20469;55.638;37.670;2023-06-19T02:32:43;15.70;1.00
34201;DHT22;20469;55.638;37.670;2023-06-19T02:35:10;15.80;1.00
34201;DHT22;20469;55.638;37.670;2023-06-19T02:37:38;16.10;1.00
34201;DHT22;20469;55.638;37.670;2023-06-19T02:40:06;15.90;1.00
34201;DHT22;20469;55.638;37.670;2023-06-19T02:42:34;15.80;1.00
34201;DHT22;20469;55.638;37.670;2023-06-19T02:45:03;15.80;1.00
34201;DHT22;20469;55.638;37.670;2023-06-19T02:47:40;15.70;1.00
34201;DHT22;20469;55.638;37.670;2023-06-19T02:50:08;15.90;1.00
34201;DHT22;20469;55.638;37.670;2023-06-19T02:52:37;16.20;1.00
34201;DHT22;20469;55.638;37.670;2023-06-19T02:55:04;15.90;1.00
34201;DHT22;20469;55.638;37.670;2023-06-19T02:57:34;15.90;1.00
34201;DHT22;20469;55.638;37.670;2023-06-19T03:00:02;16.30;1.00
34201;DHT22;20469;55.638;37.670;2023-06-19T03:02:31;16.20;1.00
34201;DHT22;20469;55.638;37.670;2023-06-19T03:04:58;16.00;1.00
34201;DHT22;20469;55.638;37.670;2023-06-19T03:07:25;16.20;1.00
34201;DHT22;20469;55.638;37.670;2023-06-19T03:09:55;16.40;1.00
34201;DHT22;20469;55.638;37.670;2023-06-19T03:12:22;16.50;1.00
34201;DHT22;20469;55.638;37.670;2023-06-19T03:14:49;16.60;1.00
34201;DHT22;20469;55.638;37.670;2023-06-19T03:17:17;16.40;1.00
34201;DHT22;20469;55.638;37.670;2023-06-19T03:19:44;16.50;1.00
34201;DHT22;20469;55.638;37.670;2023-06-19T03:22:11;16.30;1.00
34201;DHT22;20469;55.638;37.670;2023-06-19T03:24:38;16.30;1.00
34201;DHT22;20469;55.638;37.670;2023-06-19T03:27:06;16.20;1.00
34201;DHT22;20469;55.638;37.670;2023-06-19T03:29:33;16.30;1.00
34201;DHT22;20469;55.638;37.670;2023-06-19T03:32:00;16.20;1.00
34201;DHT22;20469;55.638;37.670;2023-06-19T03:34:28;16.70;1.00
34201;DHT22;20469;55.638;37.670;2023-06-19T03:36:55;17.00;1.00
34201;DHT22;20469;55.638;37.670;2023-06-19T03:39:22;16.90;1.00
34201;DHT22;20469;55.638;37.670;2023-06-19T03:41:49;16.20;1.00
34201;DHT22;20469;55.638;37.670;2023-06-19T03:44:16;16.60;1.00
34201;DHT22;20469;55.638;37.670;2023-06-19T03:46:44;16.60;1.00
34201;DHT22;20469;55.638;37.670;2023-06-19T03:49:11;16.50;1.00
34201;DHT22;20469;55.638;37.670;2023-06-19T03:51:38;16.50;1.00
34201;DHT22;20469;55.638;37.670;2023-06-19T03:54:06;16.50;1.00
34201;DHT22;20469;55.638;37.670;2023-06-19T03:56:33;16.80;1.00
34201;DHT22;20469;55.638;37.670;2023-06-19T03:59:00;16.90;1.00
34201;DHT22;20469;55.638;37.670;2023-06-19T04:01:28;17.00;1.00
34201;DHT22;20469;55.638;37.670;2023-06-19T04:03:55;17.20;1.00
34201;DHT22;20469;55.638;37.670;2023-06-19T04:06:23;17.20;1.00
34201;DHT22;20469;55.638;37.670;2023-06-19T04:08:50;17.10;1.00
34201;DHT22;20469;55.638;37.670;2023-06-19T04:11:17;17.10;1.00
34201;DHT22;20469;55.638;37.670;2023-06-19T04:13:44;17.10;1.00
34201;DHT22;20469;55.638;37.670;2023-06-19T04:16:12;17.40;1.00
34201;DHT22;20469;55.638;37.670;2023-06-19T04:18:39;17.20;1.00
34201;DHT22;20469;55.638;37.670;2023-06-19T04:21:06;17.30;1.00
34201;DHT22;20469;55.638;37.670;2023-06-19T04:23:34;17.50;1.00
34201;DHT22;20469;55.638;37.670;2023-06-19T04:26:01;17.60;1.00
34201;DHT22;20469;55.638;37.670;2023-06-19T04:28:29;17.50;1.00
34201;DHT22;20469;55.638;37.670;2023-06-19T04:30:56;17.80;1.00
34201;DHT22;20469;55.638;37.670;2023-06-19T04:33:29;17.90;1.00
34201;DHT22;20469;55.638;37.670;2023-06-19T04:35:57;18.30;1.00
34201;DHT22;20469;55.638;37.670;2023-06-19T04:38:24;18.00;1.00
34201;DHT22;20469;55.638;37.670;2023-06-19T04:40:52;18.00;1.00
34201;DHT22;20469;55.638;37.670;2023-06-19T04:43:20;18.10;1.00
34201;DHT22;20469;55.638;37.670;2023-06-19T04:45:47;18.00;1.00
34201;DHT22;20469;55.638;37.670;2023-06-19T04:48:33;17.80;1.00
34201;DHT22;20469;55.638;37.670;2023-06-19T04:51:03;17.90;1.00
34201;DHT22;20469;55.638;37.670;2023-06-19T04:53:30;18.00;1.00
34201;DHT22;20469;55.638;37.670;2023-06-19T04:55:58;18.30;1.00
34201;DHT22;20469;55.638;37.670;2023-06-19T05:01:14;18.20;1.00
34201;DHT22;20469;55.638;37.670;2023-06-19T05:03:45;18.30;1.00
34201;DHT22;20469;55.638;37.670;2023-06-19T05:06:15;18.10;1.00
34201;DHT22;20469;55.638;37.670;2023-06-19T05:08:42;18.30;1.00
34201;DHT22;20469;55.638;37.670;2023-06-19T05:11:10;18.50;1.00
34201;DHT22;20469;55.638;37.670;2023-06-19T05:13:37;18.40;1.00
34201;DHT22;20469;55.638;37.670;2023-06-19T05:16:04;18.40;1.00
34201;DHT22;20469;55.638;37.670;2023-06-19T05:18:32;18.40;1.00
34201;DHT22;20469;55.638;37.670;2023-06-19T05:20:59;18.40;1.00
34201;DHT22;20469;55.638;37.670;2023-06-19T05:23:26;18.50;1.00
34201;DHT22;20469;55.638;37.670;2023-06-19T05:25:54;18.30;1.00
34201;DHT22;20469;55.638;37.670;2023-06-19T05:28:21;18.50;1.00
34201;DHT22;20469;55.638;37.670;2023-06-19T05:30:48;19.30;1.00
34201;DHT22;20469;55.638;37.670;2023-06-19T05:33:17;19.60;1.00
34201;DHT22;20469;55.638;37.670;2023-06-19T05:35:44;19.70;1.00
34201;DHT22;20469;55.638;37.670;2023-06-19T05:38:18;19.00;1.00
34201;DHT22;20469;55.638;37.670;2023-06-19T05:40:46;19.10;1.00
34201;DHT22;20469;55.638;37.670;2023-06-19T05:43:13;19.60;1.00
34201;DHT22;20469;55.638;37.670;2023-06-19T05:45:41;19.60;1.00
34201;DHT22;20469;55.638;37.670;2023-06-19T05:48:08;19.80;1.00
34201;DHT22;20469;55.638;37.670;2023-06-19T05:50:35;19.60;1.00
34201;DHT22;20469;55.638;37.670;2023-06-19T05:53:02;19.80;1.00
34201;DHT22;20469;55.638;37.670;2023-06-19T05:55:30;19.40;1.00
34201;DHT22;20469;55.638;37.670;2023-06-19T06:00:46;19.10;1.00
34201;DHT22;20469;55.638;37.670;2023-06-19T06:03:14;19.10;1.00
34201;DHT22;20469;55.638;37.670;2023-06-19T06:05:42;19.50;1.00
34201;DHT22;20469;55.638;37.670;2023-06-19T06:08:10;19.90;1.00
34201;DHT22;20469;55.638;37.670;2023-06-19T06:10:37;20.30;1.00
34201;DHT22;20469;55.638;37.670;2023-06-19T06:13:07;20.00;1.00
34201;DHT22;20469;55.638;37.670;2023-06-19T06:15:35;20.10;1.00
34201;DHT22;20469;55.638;37.670;2023-06-19T06:18:02;20.20;1.00
34201;DHT22;20469;55.638;37.670;2023-06-19T06:20:30;19.70;1.00
34201;DHT22;20469;55.638;37.670;2023-06-19T06:22:57;19.90;1.00
34201;DHT22;20469;55.638;37.670;2023-06-19T06:25:25;20.00;1.00
34201;DHT22;20469;55.638;37.670;2023-06-19T06:27:53;19.80;1.00
34201;DHT22;20469;55.638;37.670;2023-06-19T06:33:06;20.20;1.00
34201;DHT22;20469;55.638;37.670;2023-06-19T06:35:55;19.80;1.00
34201;DHT22;20469;55.638;37.670;2023-06-19T06:38:22;19.70;1.00
34201;DHT22;20469;55.638;37.670;2023-06-19T06:40:49;20.70;1.00
34201;DHT22;20469;55.638;37.670;2023-06-19T06:43:36;20.30;1.00
34201;DHT22;20469;55.638;37.670;2023-06-19T06:46:05;20.00;1.00
34201;DHT22;20469;55.638;37.670;2023-06-19T06:48:32;19.90;1.00
34201;DHT22;20469;55.638;37.670;2023-06-19T06:51:00;20.40;1.00
34201;DHT22;20469;55.638;37.670;2023-06-19T06:53:29;21.10;1.00
34201;DHT22;20469;55.638;37.670;2023-06-19T06:55:59;21.20;1.00
34201;DHT22;20469;55.638;37.670;2023-06-19T06:58:27;21.40;1.00
34201;DHT22;20469;55.638;37.670;2023-06-19T07:00:55;21.50;1.00
34201;DHT22;20469;55.638;37.670;2023-06-19T07:03:22;20.70;1.00
34201;DHT22;20469;55.638;37.670;2023-06-19T07:05:50;21.10;1.00
34201;DHT22;20469;55.638;37.670;2023-06-19T07:08:17;20.70;1.00
34201;DHT22;20469;55.638;37.670;2023-06-19T07:10:44;20.30;1.00
34201;DHT22;20469;55.638;37.670;2023-06-19T07:13:11;20.70;1.00
34201;DHT22;20469;55.638;37.670;2023-06-19T07:15:39;21.00;1.00
34201;DHT22;20469;55.638;37.670;2023-06-19T07:18:07;21.50;1.00
34201;DHT22;20469;55.638;37.670;2023-06-19T07:20:35;21.80;1.00
34201;DHT22;20469;55.638;37.670;2023-06-19T07:23:21;21.70;1.00
34201;DHT22;20469;55.638;37.670;2023-06-19T07:25:49;22.00;1.00
34201;DHT22;20469;55.638;37.670;2023-06-19T07:28:16;21.50;1.00
34201;DHT22;20469;55.638;37.670;2023-06-19T07:30:43;21.00;1.00
34201;DHT22;20469;55.638;37.670;2023-06-19T07:33:12;21.30;1.00
34201;DHT22;20469;55.638;37.670;2023-06-19T07:35:39;21.90;1.00
34201;DHT22;20469;55.638;37.670;2023-06-19T07:38:06;22.60;1.00
34201;DHT22;20469;55.638;37.670;2023-06-19T07:40:33;22.50;1.00
34201;DHT22;20469;55.638;37.670;2023-06-19T07:43:01;22.30;1.00
34201;DHT22;20469;55.638;37.670;2023-06-19T07:45:28;22.60;1.00
34201;DHT22;20469;55.638;37.670;2023-06-19T07:47:56;22.50;1.00
34201;DHT22;20469;55.638;37.670;2023-06-19T07:50:24;21.20;1.00
34201;DHT22;20469;55.638;37.670;2023-06-19T07:52:53;21.10;1.00
34201;DHT22;20469;55.638;37.670;2023-06-19T07:55:21;20.90;1.00
34201;DHT22;20469;55.638;37.670;2023-06-19T07:57:48;20.70;1.00
34201;DHT22;20469;55.638;37.670;2023-06-19T08:00:16;21.20;1.00
34201;DHT22;20469;55.638;37.670;2023-06-19T08:02:43;21.00;1.00
34201;DHT22;20469;55.638;37.670;2023-06-19T08:05:10;21.20;1.00
34201;DHT22;20469;55.638;37.670;2023-06-19T08:07:38;21.50;1.00
34201;DHT22;20469;55.638;37.670;2023-06-19T08:10:06;22.20;1.00
34201;DHT22;20469;55.638;37.670;2023-06-19T08:12:42;22.70;1.00
34201;DHT22;20469;55.638;37.670;2023-06-19T08:15:10;23.20;1.00
34201;DHT22;20469;55.638;37.670;2023-06-19T08:17:38;22.50;1.00
34201;DHT22;20469;55.638;37.670;2023-06-19T08:20:06;23.50;1.00
34201;DHT22;20469;55.638;37.670;2023-06-19T08:22:34;23.40;1.00
34201;DHT22;20469;55.638;37.670;2023-06-19T08:25:02;23.00;1.00
34201;DHT22;20469;55.638;37.670;2023-06-19T08:27:30;22.40;1.00
34201;DHT22;20469;55.638;37.670;2023-06-19T08:29:57;22.20;1.00
34201;DHT22;20469;55.638;37.670;2023-06-19T08:35:29;21.90;1.00
34201;DHT22;20469;55.638;37.670;2023-06-19T08:37:56;22.00;1.00
34201;DHT22;20469;55.638;37.670;2023-06-19T08:43:29;22.50;1.00
34201;DHT22;20469;55.638;37.670;2023-06-19T08:46:15;23.60;1.00
34201;DHT22;20469;55.638;37.670;2023-06-19T08:49:03;23.70;1.00
34201;DHT22;20469;55.638;37.670;2023-06-19T08:51:33;24.60;1.00
34201;DHT22;20469;55.638;37.670;2023-06-19T08:54:05;23.50;1.00
34201;DHT22;20469;55.638;37.670;2023-06-19T08:56:33;22.80;1.00
34201;DHT22;20469;55.638;37.670;2023-06-19T08:59:12;22.90;1.00
34201;DHT22;20469;55.638;37.670;2023-06-19T09:01:39;23.40;1.00
34201;DHT22;20469;55.638;37.670;2023-06-19T09:04:12;24.50;1.00
34201;DHT22;20469;55.638;37.670;2023-06-19T09:06:59;24.80;1.00
34201;DHT22;20469;55.638;37.670;2023-06-19T09:09:27;23.90;1.00
34201;DHT22;20469;55.638;37.670;2023-06-19T09:14:38;23.90;1.00
34201;DHT22;20469;55.638;37.670;2023-06-19T09:19:54;24.00;1.00
34201;DHT22;20469;55.638;37.670;2023-06-19T09:22:24;23.20;1.00
34201;DHT22;20469;55.638;37.670;2023-06-19T09:24:52;24.30;1.00
34201;DHT22;20469;55.638;37.670;2023-06-19T09:27:19;23.80;1.00
34201;DHT22;20469;55.638;37.670;2023-06-19T09:29:49;24.70;1.00
34201;DHT22;20469;55.638;37.670;2023-06-19T09:32:37;23.30;1.00
34201;DHT22;20469;55.638;37.670;2023-06-19T09:35:23;23.10;1.00
34201;DHT22;20469;55.638;37.670;2023-06-19T09:38:09;25.00;1.00
34201;DHT22;20469;55.638;37.670;2023-06-19T09:40:37;25.50;1.00
34201;DHT22;20469;55.638;37.670;2023-06-19T09:45:55;25.50;1.00
34201;DHT22;20469;55.638;37.670;2023-06-19T09:48:28;24.10;1.00
34201;DHT22;20469;55.638;37.670;2023-06-19T09:53:48;23.50;1.00
34201;DHT22;20469;55.638;37.670;2023-06-19T09:59:22;25.50;1.00
34201;DHT22;20469;55.638;37.670;2023-06-19T10:01:50;24.40;1.00
34201;DHT22;20469;55.638;37.670;2023-06-19T10:07:34;24.00;1.00
34201;DHT22;20469;55.638;37.670;2023-06-19T10:10:07;24.10;1.00
34201;DHT22;20469;55.638;37.670;2023-06-19T10:15:23;23.80;1.00
34201;DHT22;20469;55.638;37.670;2023-06-19T10:18:02;23.30;1.00
34201;DHT22;20469;55.638;37.670;2023-06-19T10:20:37;24.30;1.00
34201;DHT22;20469;55.638;37.670;2023-06-19T10:26:17;24.00;1.00
34201;DHT22;20469;55.638;37.670;2023-06-19T10:28:46;24.70;1.00
34201;DHT22;20469;55.638;37.670;2023-06-19T10:31:15;25.50;1.00
34201;DHT22;20469;55.638;37.670;2023-06-19T10:34:03;24.90;1.00
34201;DHT22;20469;55.638;37.670;2023-06-19T10:36:30;25.20;1.00
34201;DHT22;20469;55.638;37.670;2023-06-19T10:38:58;25.60;1.00
34201;DHT22;20469;55.638;37.670;2023-06-19T10:41:26;26.20;1.00
34201;DHT22;20469;55.638;37.670;2023-06-19T10:49:14;26.30;1.00
34201;DHT22;20469;55.638;37.670;2023-06-19T10:51:42;26.40;1.00
34201;DHT22;20469;55.638;37.670;2023-06-19T10:57:15;25.80;1.00
34201;DHT22;20469;55.638;37.670;2023-06-19T11:00:01;25.70;1.00
34201;DHT22;20469;55.638;37.670;2023-06-19T11:02:32;25.10;1.00
34201;DHT22;20469;55.638;37.670;2023-06-19T11:05:02;24.50;1.00
34201;DHT22;20469;55.638;37.670;2023-06-19T11:07:32;24.90;1.00
34201;DHT22;20469;55.638;37.670;2023-06-19T11:13:17;25.70;1.00
34201;DHT22;20469;55.638;37.670;2023-06-19T11:18:31;25.40;1.00
34201;DHT22;20469;55.638;37.670;2023-06-19T11:20:59;25.60;1.00
34201;DHT22;20469;55.638;37.670;2023-06-19T11:23:30;25.00;1.00
34201;DHT22;20469;55.638;37.670;2023-06-19T11:26:04;24.90;1.00
34201;DHT22;20469;55.638;37.670;2023-06-19T11:28:32;25.50;1.00
34201;DHT22;20469;55.638;37.670;2023-06-19T11:31:03;25.40;1.00
34201;DHT22;20469;55.638;37.670;2023-06-19T11:33:30;26.10;1.00
34201;DHT22;20469;55.638;37.670;2023-06-19T11:36:19;25.50;1.00
34201;DHT22;20469;55.638;37.670;2023-06-19T11:38:47;25.30;1.00
34201;DHT22;20469;55.638;37.670;2023-06-19T11:41:28;25.50;1.00
34201;DHT22;20469;55.638;37.670;2023-06-19T11:44:02;25.80;1.00
34201;DHT22;20469;55.638;37.670;2023-06-19T11:46:33;26.10;1.00
34201;DHT22;20469;55.638;37.670;2023-06-19T11:49:37;26.00;1.00
34201;DHT22;20469;55.638;37.670;2023-06-19T11:52:24;25.50;1.00
34201;DHT22;20469;55.638;37.670;2023-06-19T11:54:52;26.10;1.00
34201;DHT22;20469;55.638;37.670;2023-06-19T11:57:19;26.00;1.00
34201;DHT22;20469;55.638;37.670;2023-06-19T11:59:46;26.40;1.00
34201;DHT22;20469;55.638;37.670;2023-06-19T12:02:13;26.20;1.00
34201;DHT22;20469;55.638;37.670;2023-06-19T12:04:41;26.70;1.00
34201;DHT22;20469;55.638;37.670;2023-06-19T12:07:08;26.20;1.00
34201;DHT22;20469;55.638;37.670;2023-06-19T12:09:36;26.30;1.00
34201;DHT22;20469;55.638;37.670;2023-06-19T12:12:06;25.80;1.00
34201;DHT22;20469;55.638;37.670;2023-06-19T12:14:34;25.40;1.00
34201;DHT22;20469;55.638;37.670;2023-06-19T12:17:01;26.30;1.00
34201;DHT22;20469;55.638;37.670;2023-06-19T12:19:47;26.40;1.00
34201;DHT22;20469;55.638;37.670;2023-06-19T12:22:15;25.40;1.00
34201;DHT22;20469;55.638;37.670;2023-06-19T12:24:43;26.00;1.00
34201;DHT22;20469;55.638;37.670;2023-06-19T12:27:10;26.40;1.00
34201;DHT22;20469;55.638;37.670;2023-06-19T12:29:37;26.50;1.00
34201;DHT22;20469;55.638;37.670;2023-06-19T12:32:05;26.10;1.00
34201;DHT22;20469;55.638;37.670;2023-06-19T12:34:32;25.70;1.00
34201;DHT22;20469;55.638;37.670;2023-06-19T12:36:59;25.40;1.00
34201;DHT22;20469;55.638;37.670;2023-06-19T12:39:27;26.20;1.00
34201;DHT22;20469;55.638;37.670;2023-06-19T12:41:54;25.70;1.00
34201;DHT22;20469;55.638;37.670;2023-06-19T12:47:08;25.60;1.00
34201;DHT22;20469;55.638;37.670;2023-06-19T12:49:53;26.10;1.00
34201;DHT22;20469;55.638;37.670;2023-06-19T12:52:39;25.70;1.00
34201;DHT22;20469;55.638;37.670;2023-06-19T12:55:07;25.30;1.00
34201;DHT22;20469;55.638;37.670;2023-06-19T12:57:34;25.40;1.00
34201;DHT22;20469;55.638;37.670;2023-06-19T13:00:03;25.20;1.00
34201;DHT22;20469;55.638;37.670;2023-06-19T13:08:06;25.20;1.00
34201;DHT22;20469;55.638;37.670;2023-06-19T13:10:33;25.50;1.00
34201;DHT22;20469;55.638;37.670;2023-06-19T13:13:01;25.70;1.00
34201;DHT22;20469;55.638;37.670;2023-06-19T13:15:29;26.10;1.00
34201;DHT22;20469;55.638;37.670;2023-06-19T13:20:42;26.90;1.00
34201;DHT22;20469;55.638;37.670;2023-06-19T13:23:11;26.30;1.00
34201;DHT22;20469;55.638;37.670;2023-06-19T13:25:39;25.50;1.00
34201;DHT22;20469;55.638;37.670;2023-06-19T13:28:06;25.50;1.00
34201;DHT22;20469;55.638;37.670;2023-06-19T13:30:33;25.20;1.00
34201;DHT22;20469;55.638;37.670;2023-06-19T13:33:19;25.30;1.00
34201;DHT22;20469;55.638;37.670;2023-06-19T13:38:32;25.60;1.00
34201;DHT22;20469;55.638;37.670;2023-06-19T13:46:51;25.50;1.00
34201;DHT22;20469;55.638;37.670;2023-06-19T13:49:18;24.70;1.00
34201;DHT22;20469;55.638;37.670;2023-06-19T13:51:46;24.90;1.00
34201;DHT22;20469;55.638;37.670;2023-06-19T13:54:13;24.40;1.00
34201;DHT22;20469;55.638;37.670;2023-06-19T13:56:59;24.30;1.00
34201;DHT22;20469;55.638;37.670;2023-06-19T13:59:26;24.70;1.00
34201;DHT22;20469;55.638;37.670;2023-06-19T14:01:54;25.20;1.00
34201;DHT22;20469;55.638;37.670;2023-06-19T14:04:21;25.30;1.00
34201;DHT22;20469;55.638;37.670;2023-06-19T14:07:25;24.90;1.00
34201;DHT22;20469;55.638;37.670;2023-06-19T14:10:11;24.50;1.00
34201;DHT22;20469;55.638;37.670;2023-06-19T14:12:38;24.50;1.00
34201;DHT22;20469;55.638;37.670;2023-06-19T14:15:06;24.50;1.00
34201;DHT22;20469;55.638;37.670;2023-06-19T14:17:35;25.00;1.00
34201;DHT22;20469;55.638;37.670;2023-06-19T14:20:03;25.40;1.00
34201;DHT22;20469;55.638;37.670;2023-06-19T14:22:31;26.60;1.00
34201;DHT22;20469;55.638;37.670;2023-06-19T14:24:59;28.30;1.00
34201;DHT22;20469;55.638;37.670;2023-06-19T14:27:31;28.00;1.00
34201;DHT22;20469;55.638;37.670;2023-06-19T14:30:18;26.60;1.00
34201;DHT22;20469;55.638;37.670;2023-06-19T14:35:31;24.40;1.00
34201;DHT22;20469;55.638;37.670;2023-06-19T14:37:59;23.80;1.00
34201;DHT22;20469;55.638;37.670;2023-06-19T14:40:45;23.70;1.00
34201;DHT22;20469;55.638;37.670;2023-06-19T14:43:31;23.80;1.00
34201;DHT22;20469;55.638;37.670;2023-06-19T14:49:07;24.90;1.00
34201;DHT22;20469;55.638;37.670;2023-06-19T14:51:35;24.10;1.00
34201;DHT22;20469;55.638;37.670;2023-06-19T14:54:02;23.60;1.00
34201;DHT22;20469;55.638;37.670;2023-06-19T14:56:30;24.10;1.00
34201;DHT22;20469;55.638;37.670;2023-06-19T14:58:58;24.10;1.00
34201;DHT22;20469;55.638;37.670;2023-06-19T15:01:25;23.20;1.00
34201;DHT22;20469;55.638;37.670;2023-06-19T15:04:11;23.70;1.00
34201;DHT22;20469;55.638;37.670;2023-06-19T15:06:57;23.40;1.00
34201;DHT22;20469;55.638;37.670;2023-06-19T15:09:25;23.20;1.00
34201;DHT22;20469;55.638;37.670;2023-06-19T15:12:11;23.40;1.00
34201;DHT22;20469;55.638;37.670;2023-06-19T15:14:39;23.20;1.00
34201;DHT22;20469;55.638;37.670;2023-06-19T15:19:54;23.30;1.00
34201;DHT22;20469;55.638;37.670;2023-06-19T15:22:21;23.50;1.00
34201;DHT22;20469;55.638;37.670;2023-06-19T15:27:53;23.20;1.00
34201;DHT22;20469;55.638;37.670;2023-06-19T15:33:06;23.40;1.00
34201;DHT22;20469;55.638;37.670;2023-06-19T15:35:33;23.20;1.00
34201;DHT22;20469;55.638;37.670;2023-06-19T15:38:01;23.10;1.00
34201;DHT22;20469;55.638;37.670;2023-06-19T15:40:29;23.10;1.00
34201;DHT22;20469;55.638;37.670;2023-06-19T15:42:56;23.20;1.00
34201;DHT22;20469;55.638;37.670;2023-06-19T15:45:23;23.20;1.00
34201;DHT22;20469;55.638;37.670;2023-06-19T15:48:09;23.10;1.00
34201;DHT22;20469;55.638;37.670;2023-06-19T15:50:36;23.10;1.00
34201;DHT22;20469;55.638;37.670;2023-06-19T16:01:42;22.70;1.00
34201;DHT22;20469;55.638;37.670;2023-06-19T16:04:09;22.70;1.00
34201;DHT22;20469;55.638;37.670;2023-06-19T16:06:36;22.70;1.00
34201;DHT22;20469;55.638;37.670;2023-06-19T16:09:04;22.90;1.00
34201;DHT22;20469;55.638;37.670;2023-06-19T16:11:31;22.80;1.00
34201;DHT22;20469;55.638;37.670;2023-06-19T16:13:58;22.70;1.00
34201;DHT22;20469;55.638;37.670;2023-06-19T16:16:26;22.50;1.00
34201;DHT22;20469;55.638;37.670;2023-06-19T16:18:53;22.50;1.00
34201;DHT22;20469;55.638;37.670;2023-06-19T16:21:21;22.10;1.00
34201;DHT22;20469;55.638;37.670;2023-06-19T16:23:49;22.20;1.00
34201;DHT22;20469;55.638;37.670;2023-06-19T16:26:16;22.30;1.00
34201;DHT22;20469;55.638;37.670;2023-06-19T16:28:44;22.60;1.00
34201;DHT22;20469;55.638;37.670;2023-06-19T16:31:30;22.50;1.00
34201;DHT22;20469;55.638;37.670;2023-06-19T16:39:48;22.30;1.00
34201;DHT22;20469;55.638;37.670;2023-06-19T16:42:15;22.30;1.00
34201;DHT22;20469;55.638;37.670;2023-06-19T16:45:02;22.20;1.00
34201;DHT22;20469;55.638;37.670;2023-06-19T16:47:30;22.00;1.00
34201;DHT22;20469;55.638;37.670;2023-06-19T16:49:57;22.00;1.00
34201;DHT22;20469;55.638;37.670;2023-06-19T16:55:11;22.00;1.00
34201;DHT22;20469;55.638;37.670;2023-06-19T16:57:38;21.90;1.00
34201;DHT22;20469;55.638;37.670;2023-06-19T17:00:06;21.70;1.00
34201;DHT22;20469;55.638;37.670;2023-06-19T17:02:35;21.70;1.00
34201;DHT22;20469;55.638;37.670;2023-06-19T17:07:49;21.80;1.00
34201;DHT22;20469;55.638;37.670;2023-06-19T17:10:16;21.50;1.00
34201;DHT22;20469;55.638;37.670;2023-06-19T17:12:45;21.50;1.00
34201;DHT22;20469;55.638;37.670;2023-06-19T17:15:12;21.90;1.00
34201;DHT22;20469;55.638;37.670;2023-06-19T17:17:40;21.50;1.00
34201;DHT22;20469;55.638;37.670;2023-06-19T17:20:07;21.30;1.00
34201;DHT22;20469;55.638;37.670;2023-06-19T17:22:36;21.40;1.00
34201;DHT22;20469;55.638;37.670;2023-06-19T17:25:03;21.20;1.00
34201;DHT22;20469;55.638;37.670;2023-06-19T17:27:31;21.20;1.00
34201;DHT22;20469;55.638;37.670;2023-06-19T17:30:16;21.10;1.00
34201;DHT22;20469;55.638;37.670;2023-06-19T17:32:44;21.10;1.00
34201;DHT22;20469;55.638;37.670;2023-06-19T17:35:12;21.00;1.00